Nome, Alaska
Current Conditions -  °F | °C
As of 4:53 PM on Friday 24 Oct 2014 (Local Time) from PAOM Reporting Station
Haze Haze  
Wind Chill: 31°   Ceiling: 1500
Heat Index: 35°   Visibility: 6mi
Dew Point: 34°   Wind: 5mph
Humidity: 96%   Direction: 180°S
Pressure: 29.75"   Gusts: NA
Location:  64.5°N, 165.41°W
Report Text: PAOM 250053Z 18004KT 6SM BR SCT008 BKN015 OVC050 02/01 A2975 RMK SLP076 CIG 006 NE T00170011 VIA AUTODIAL
Loading
Personal Weather Stations






























Interactive Weather Map
Tropical Storm Tracking
New forecast layout! Learn more

10-Day Weather Forecast

Advertisements
Track Severe Weather on mobile